Time;durP1;ratioP1;P1;durP2;ratioP2;P2;SDS_P1;SDS_P2;PMS_P1;PMS_P2;Temp;Humidity;BMP_temperature;BMP_pressure;BME280_temperature;BME280_humidity;BME280_pressure;Samples;Min_cycle;Max_cycle;Signal;HPM_P1;HPM_P2
2023/09/03 00:00:38;;;;;;;1.83;1.40;;;16.10;99.90;;;;;;5075641;28;20165;-80
2023/09/03 00:03:04;;;;;;;1.50;1.40;;;16.00;99.90;;;;;;5075645;28;20192;-80
2023/09/03 00:05:30;;;;;;;1.90;1.70;;;16.00;99.90;;;;;;5066728;28;20247;-80
2023/09/03 00:07:55;;;;;;;2.60;1.60;;;16.00;99.90;;;;;;5075967;28;20173;-79
2023/09/03 00:10:21;;;;;;;2.40;1.63;;;16.10;99.90;;;;;;5073567;28;20199;-80
2023/09/03 00:12:47;;;;;;;3.27;1.50;;;16.00;99.90;;;;;;5074862;28;20236;-80
2023/09/03 00:15:12;;;;;;;3.97;1.63;;;16.00;99.90;;;;;;5074320;28;20722;-80
2023/09/03 00:17:38;;;;;;;1.77;1.60;;;16.00;99.90;;;;;;5074888;28;20168;-80
2023/09/03 00:20:05;;;;;;;2.70;1.40;;;16.10;99.90;;;;;;5069163;28;20271;-80
2023/09/03 00:22:30;;;;;;;1.60;1.50;;;16.00;99.90;;;;;;5074906;28;20215;-80
2023/09/03 00:24:56;;;;;;;2.17;1.67;;;15.90;99.90;;;;;;5074117;28;20212;-80
2023/09/03 00:27:22;;;;;;;3.67;1.67;;;15.90;99.90;;;;;;5075067;28;20184;-80
2023/09/03 00:29:47;;;;;;;4.10;1.60;;;15.80;99.90;;;;;;5075700;28;20188;-79
2023/09/03 00:32:13;;;;;;;1.87;1.70;;;15.70;99.90;;;;;;5059041;28;20198;-80
2023/09/03 00:34:38;;;;;;;5.20;1.70;;;15.70;99.90;;;;;;5054499;28;20173;-80
2023/09/03 00:37:04;;;;;;;2.60;1.70;;;15.80;99.90;;;;;;5055179;28;20248;-80
2023/09/03 00:39:29;;;;;;;2.40;1.50;;;15.80;99.90;;;;;;5055054;28;20170;-78
2023/09/03 00:41:55;;;;;;;2.83;1.80;;;15.70;99.90;;;;;;5053901;28;20223;-80
2023/09/03 00:44:21;;;;;;;2.63;1.80;;;15.60;99.90;;;;;;5055224;28;20193;-80
2023/09/03 00:46:47;;;;;;;3.53;1.83;;;15.50;99.90;;;;;;5054214;28;20194;-80
2023/09/03 00:49:19;;;;;;;3.70;1.90;;;15.60;99.90;;;;;;5053936;28;20192;-80
2023/09/03 00:51:45;;;;;;;4.47;1.50;;;15.70;99.90;;;;;;5054684;28;20212;-80
2023/09/03 00:54:10;;;;;;;2.90;2.00;;;15.60;99.90;;;;;;5053573;28;20181;-80
2023/09/03 00:56:36;;;;;;;1.70;1.50;;;15.50;99.90;;;;;;5054024;28;20193;-80
2023/09/03 00:59:02;;;;;;;1.93;1.50;;;15.50;99.90;;;;;;5054677;28;20653;-80
2023/09/03 01:01:29;;;;;;;3.30;1.70;;;15.40;99.90;;;;;;5054781;28;20227;-79
2023/09/03 01:03:56;;;;;;;2.67;1.60;;;15.50;99.90;;;;;;5054225;28;20299;-80
2023/09/03 01:06:21;;;;;;;3.03;1.63;;;15.40;99.90;;;;;;5055395;28;20205;-80
2023/09/03 01:08:47;;;;;;;4.20;1.57;;;15.40;99.90;;;;;;5053976;28;20177;-80
2023/09/03 01:11:12;;;;;;;2.50;2.00;;;15.40;99.90;;;;;;5070247;28;20177;-80
2023/09/03 01:14:15;;;;;;;5.93;1.57;;;15.60;99.90;;;;;;5073995;28;20644;-79
2023/09/03 01:16:53;;;;;;;1.73;1.63;;;15.50;99.90;;;;;;5072711;28;20200;-80
2023/09/03 01:19:53;;;;;;;2.00;1.80;;;15.50;99.90;;;;;;5091425;28;20262;-80
2023/09/03 01:22:40;;;;;;;4.73;1.90;;;15.50;99.90;;;;;;5075496;28;20616;-80
2023/09/03 01:25:36;;;;;;;2.00;1.70;;;15.60;99.90;;;;;;5078598;28;20204;-80
2023/09/03 01:28:19;;;;;;;2.07;1.87;;;15.50;99.90;;;;;;5079425;28;20245;-80
2023/09/03 01:30:45;;;;;;;4.30;2.23;;;15.50;99.90;;;;;;5077591;28;20202;-80
2023/09/03 01:33:12;;;;;;;2.10;1.90;;;15.50;99.90;;;;;;5095152;28;20177;-80
2023/09/03 01:35:39;;;;;;;3.03;1.97;;;15.50;99.90;;;;;;5079075;28;20572;-80
2023/09/03 01:38:05;;;;;;;3.37;2.17;;;15.40;99.90;;;;;;5079164;28;20199;-80
2023/09/03 01:40:31;;;;;;;4.60;2.27;;;15.50;99.90;;;;;;5094773;28;20205;-80
2023/09/03 01:42:57;;;;;;;2.93;1.97;;;15.50;99.90;;;;;;5094651;28;20196;-79
2023/09/03 01:45:29;;;;;;;3.93;2.20;;;15.40;99.90;;;;;;5077624;28;20212;-80
2023/09/03 01:48:05;;;;;;;4.13;2.20;;;15.50;99.90;;;;;;5077660;28;20218;-79
2023/09/03 01:50:46;;;;;;;3.87;2.00;;;15.60;99.90;;;;;;5094519;28;20172;-80
2023/09/03 01:53:21;;;;;;;2.77;2.00;;;15.50;99.90;;;;;;5094625;28;20172;-80
2023/09/03 01:55:53;;;;;;;4.83;2.00;;;15.50;99.90;;;;;;5094532;28;20203;-80
2023/09/03 01:58:20;;;;;;;3.33;2.00;;;15.50;99.90;;;;;;5094764;28;20200;-80
2023/09/03 02:00:46;;;;;;;4.13;2.20;;;15.50;99.90;;;;;;5094089;28;20177;-80
2023/09/03 02:03:13;;;;;;;4.43;2.37;;;15.50;99.90;;;;;;5079217;28;20546;-80
2023/09/03 02:05:38;;;;;;;3.30;1.83;;;15.40;99.90;;;;;;5078500;28;20201;-80
2023/09/03 02:08:04;;;;;;;3.10;1.90;;;15.30;99.90;;;;;;5094222;28;20236;-79
2023/09/03 02:10:30;;;;;;;4.20;1.97;;;15.30;99.90;;;;;;5078255;28;20204;-80
2023/09/03 02:12:55;;;;;;;2.03;1.80;;;15.20;99.90;;;;;;5093877;28;20181;-78
2023/09/03 02:15:21;;;;;;;3.73;2.00;;;15.10;99.90;;;;;;5078117;28;20283;-80
2023/09/03 02:17:47;;;;;;;2.27;1.87;;;15.20;99.90;;;;;;5093819;28;20697;-80
2023/09/03 02:20:12;;;;;;;3.20;2.30;;;15.20;99.90;;;;;;5077264;28;20173;-80
2023/09/03 02:22:38;;;;;;;2.33;1.90;;;15.20;99.90;;;;;;5065824;28;20201;-80
2023/09/03 02:25:04;;;;;;;2.37;1.83;;;15.20;99.90;;;;;;5056892;28;20280;-79
2023/09/03 02:27:29;;;;;;;2.53;1.90;;;15.10;99.90;;;;;;5056650;28;20166;-80
2023/09/03 02:29:55;;;;;;;5.17;2.40;;;15.10;99.90;;;;;;5057086;28;20173;-79
2023/09/03 02:32:20;;;;;;;4.93;2.03;;;15.10;99.90;;;;;;5058239;28;20260;-80
2023/09/03 02:34:46;;;;;;;2.63;1.70;;;15.10;99.90;;;;;;5056475;28;20169;-79
2023/09/03 02:37:11;;;;;;;2.87;1.90;;;15.00;99.90;;;;;;5057675;28;20316;-80
2023/09/03 02:39:37;;;;;;;3.83;2.10;;;15.00;99.90;;;;;;5056603;28;20225;-80
2023/09/03 02:42:03;;;;;;;4.00;2.40;;;15.00;99.90;;;;;;5056448;28;20177;-80
2023/09/03 02:44:29;;;;;;;6.67;2.50;;;15.00;99.90;;;;;;5056762;28;20216;-80
2023/09/03 02:46:54;;;;;;;2.70;2.30;;;15.10;99.90;;;;;;5058139;28;20193;-80
2023/09/03 02:49:21;;;;;;;4.00;2.30;;;15.10;99.90;;;;;;5058007;28;20216;-80
2023/09/03 02:51:47;;;;;;;3.87;2.40;;;15.00;99.90;;;;;;5057207;28;20186;-80
2023/09/03 02:54:13;;;;;;;3.20;2.10;;;15.00;99.90;;;;;;5057506;28;20604;-80
2023/09/03 02:56:38;;;;;;;3.47;2.40;;;15.00;99.90;;;;;;5057307;28;20189;-80
2023/09/03 02:59:04;;;;;;;2.20;1.90;;;15.00;99.90;;;;;;5056972;28;20180;-80
2023/09/03 03:01:30;;;;;;;4.30;2.03;;;15.00;99.90;;;;;;5056736;28;20184;-80
2023/09/03 03:03:55;;;;;;;4.90;2.60;;;15.00;99.90;;;;;;5056278;28;20591;-80
2023/09/03 03:06:21;;;;;;;7.17;3.10;;;15.10;99.90;;;;;;5056924;28;20197;-81
2023/09/03 03:08:47;;;;;;;6.07;3.20;;;15.10;99.90;;;;;;5055163;28;20166;-81
2023/09/03 03:11:15;;;;;;;5.73;3.10;;;15.10;99.90;;;;;;5055094;28;20655;-80
2023/09/03 03:13:42;;;;;;;6.87;3.40;;;15.20;99.90;;;;;;5057130;28;20173;-80
2023/09/03 03:16:13;;;;;;;8.00;3.27;;;15.30;99.90;;;;;;5056972;28;20229;-80
2023/09/03 03:18:40;;;;;;;7.57;3.50;;;15.30;99.90;;;;;;5056815;28;20192;-80
2023/09/03 03:21:07;;;;;;;12.73;3.80;;;15.30;99.90;;;;;;5056091;28;20268;-80
2023/09/03 03:23:34;;;;;;;6.53;3.43;;;15.20;99.90;;;;;;5055740;28;20177;-78
2023/09/03 03:26:00;;;;;;;9.30;4.27;;;15.30;99.90;;;;;;5056982;28;20235;-80
2023/09/03 03:28:26;;;;;;;5.87;3.33;;;15.20;99.90;;;;;;5057236;28;20189;-80
2023/09/03 03:30:51;;;;;;;19.83;3.93;;;15.20;99.90;;;;;;5056366;28;20196;-79
2023/09/03 03:33:17;;;;;;;7.73;3.60;;;15.30;99.90;;;;;;5056931;28;20169;-80
2023/09/03 03:35:42;;;;;;;6.67;3.30;;;15.30;99.90;;;;;;5083178;22;20229;-84
2023/09/03 03:38:08;;;;;;;7.33;3.27;;;15.20;99.90;;;;;;5073934;28;20196;-85
2023/09/03 03:40:33;;;;;;;8.87;4.03;;;15.20;99.90;;;;;;5073943;28;20181;-85
2023/09/03 03:42:59;;;;;;;4.80;3.00;;;15.00;99.90;;;;;;5075371;28;20259;-84
2023/09/03 03:45:24;;;;;;;3.33;2.60;;;15.00;99.90;;;;;;5074097;28;20250;-85
2023/09/03 03:47:50;;;;;;;6.67;2.93;;;15.00;99.90;;;;;;5073801;28;20177;-85
2023/09/03 03:50:15;;;;;;;3.23;2.37;;;15.10;99.90;;;;;;5074663;28;20223;-85
2023/09/03 03:52:41;;;;;;;3.40;2.63;;;15.00;99.90;;;;;;5073345;28;20177;-85
2023/09/03 03:55:07;;;;;;;3.80;2.70;;;15.00;99.90;;;;;;5073297;28;20185;-85
2023/09/03 03:57:32;;;;;;;4.70;2.93;;;15.00;99.90;;;;;;5073464;28;20232;-86
2023/09/03 03:59:58;;;;;;;3.57;2.70;;;15.00;99.90;;;;;;5073024;28;20269;-86
2023/09/03 04:02:24;;;;;;;5.83;2.50;;;15.00;99.90;;;;;;5075242;28;20184;-85
2023/09/03 04:04:53;;;;;;;7.17;2.80;;;15.00;99.90;;;;;;5074468;28;20269;-86
2023/09/03 04:07:19;;;;;;;4.37;2.80;;;15.00;99.90;;;;;;5074336;28;20216;-87
2023/09/03 04:09:45;;;;;;;4.87;2.63;;;15.10;99.90;;;;;;5071517;28;20197;-86
2023/09/03 04:12:10;;;;;;;4.30;2.90;;;15.10;99.90;;;;;;5071969;28;20177;-87
2023/09/03 04:14:37;;;;;;;4.23;3.07;;;15.10;99.90;;;;;;5073882;28;20187;-87
2023/09/03 04:17:03;;;;;;;3.27;2.97;;;15.10;99.90;;;;;;5074013;28;20193;-87
2023/09/03 04:19:29;;;;;;;5.40;2.90;;;15.10;99.90;;;;;;5074772;28;20184;-87
2023/09/03 04:21:54;;;;;;;3.13;2.73;;;15.10;99.90;;;;;;5073436;28;20181;-86
2023/09/03 04:24:20;;;;;;;3.70;2.93;;;15.10;99.90;;;;;;5072867;28;20180;-87
2023/09/03 04:26:45;;;;;;;4.30;3.00;;;15.20;99.90;;;;;;5072941;28;20189;-87
2023/09/03 04:29:11;;;;;;;3.30;2.70;;;15.20;99.90;;;;;;5072902;28;20207;-86
2023/09/03 04:31:36;;;;;;;6.70;2.93;;;15.10;99.90;;;;;;5073340;28;20260;-86
2023/09/03 04:34:02;;;;;;;3.93;2.80;;;15.10;99.90;;;;;;5074759;28;20169;-82
2023/09/03 04:36:28;;;;;;;4.47;2.97;;;15.10;99.90;;;;;;5072305;28;20240;-82
2023/09/03 04:38:54;;;;;;;4.77;2.90;;;15.10;99.90;;;;;;5072463;28;20185;-82
2023/09/03 04:41:19;;;;;;;2.90;2.60;;;15.20;99.90;;;;;;5071805;28;20185;-82
2023/09/03 04:43:45;;;;;;;4.90;3.30;;;15.30;99.90;;;;;;5072859;28;20216;-82
2023/09/03 04:46:10;;;;;;;5.93;3.20;;;15.30;99.90;;;;;;5072274;28;20251;-82
2023/09/03 04:48:36;;;;;;;4.17;3.07;;;15.30;99.90;;;;;;5074445;28;20169;-81
2023/09/03 04:51:03;;;;;;;4.50;3.60;;;15.30;99.90;;;;;;5073643;28;20325;-83
2023/09/03 04:53:30;;;;;;;4.47;3.17;;;15.30;99.90;;;;;;5073785;28;20636;-83
2023/09/03 04:55:56;;;;;;;3.70;3.27;;;15.30;99.90;;;;;;5072389;28;20219;-82
2023/09/03 04:58:22;;;;;;;5.03;3.93;;;15.40;99.90;;;;;;5072643;28;20173;-83
2023/09/03 05:00:47;;;;;;;6.53;3.40;;;15.40;99.90;;;;;;5072926;28;20237;-82
2023/09/03 05:03:13;;;;;;;4.50;3.30;;;15.40;99.90;;;;;;5072672;28;20231;-82
2023/09/03 05:05:43;;;;;;;4.97;3.87;;;15.50;99.90;;;;;;5072521;28;20222;-82
2023/09/03 05:08:09;;;;;;;4.27;3.40;;;15.50;99.90;;;;;;5072422;28;20173;-83
2023/09/03 05:10:35;;;;;;;3.50;3.20;;;15.60;99.90;;;;;;5073843;28;20203;-82
2023/09/03 05:13:04;;;;;;;6.20;3.13;;;15.60;99.90;;;;;;5074439;28;20216;-83
2023/09/03 05:15:30;;;;;;;5.60;3.27;;;15.60;99.90;;;;;;5073781;28;20185;-82
2023/09/03 05:17:55;;;;;;;5.70;3.23;;;15.50;99.90;;;;;;5072616;28;20177;-80
2023/09/03 05:20:21;;;;;;;3.53;3.23;;;15.60;99.90;;;;;;5073566;28;20180;-83
2023/09/03 05:22:46;;;;;;;3.70;3.23;;;15.60;99.90;;;;;;5072124;28;20177;-81
2023/09/03 05:25:12;;;;;;;3.47;3.00;;;15.60;99.90;;;;;;5073503;28;20204;-82
2023/09/03 05:27:37;;;;;;;3.97;3.10;;;15.60;99.90;;;;;;5072531;28;20223;-82
2023/09/03 05:30:03;;;;;;;3.50;3.20;;;15.60;99.90;;;;;;5073044;28;20165;-82
2023/09/03 05:32:29;;;;;;;4.23;3.50;;;15.60;99.90;;;;;;5071803;28;20184;-83
2023/09/03 05:34:54;;;;;;;4.10;3.53;;;15.60;99.90;;;;;;5071761;28;20177;-83
2023/09/03 05:37:20;;;;;;;3.53;3.23;;;15.60;99.90;;;;;;5073380;28;20201;-83
2023/09/03 05:39:46;;;;;;;4.30;3.90;;;15.60;99.90;;;;;;5073217;28;20177;-82
2023/09/03 05:42:11;;;;;;;4.53;3.90;;;15.70;99.90;;;;;;5073640;28;20165;-82
2023/09/03 05:44:37;;;;;;;4.43;3.80;;;15.70;99.90;;;;;;5073353;28;20185;-83
2023/09/03 05:47:03;;;;;;;4.43;3.73;;;15.80;99.90;;;;;;5072315;28;20219;-83
2023/09/03 05:49:28;;;;;;;6.63;4.50;;;15.80;99.90;;;;;;5072308;28;20219;-83
2023/09/03 05:51:54;;;;;;;5.43;4.80;;;15.80;99.90;;;;;;5071733;28;20176;-82
2023/09/03 05:54:19;;;;;;;6.70;4.67;;;15.80;99.90;;;;;;5072412;28;20169;-82
2023/09/03 05:56:45;;;;;;;4.80;4.23;;;15.90;99.90;;;;;;5072203;28;20197;-82
2023/09/03 05:59:11;;;;;;;6.13;4.50;;;15.90;99.90;;;;;;5074712;28;20173;-83
2023/09/03 06:01:37;;;;;;;4.80;4.30;;;15.90;99.90;;;;;;5072620;28;20256;-82
2023/09/03 06:04:06;;;;;;;4.77;4.23;;;15.90;99.90;;;;;;5072758;28;20242;-82
2023/09/03 06:06:38;;;;;;;6.67;4.20;;;15.90;99.90;;;;;;5072765;28;20200;-83
2023/09/03 06:09:08;;;;;;;5.57;4.20;;;16.00;99.90;;;;;;5075231;28;20240;-85
2023/09/03 06:11:35;;;;;;;4.67;3.93;;;16.00;99.90;;;;;;5076995;28;20240;-84
2023/09/03 06:14:00;;;;;;;4.83;4.00;;;16.20;99.90;;;;;;5076571;28;20639;-85
2023/09/03 06:16:26;;;;;;;6.13;4.63;;;16.20;99.90;;;;;;5076069;28;20211;-84
2023/09/03 06:18:52;;;;;;;5.50;4.30;;;16.30;99.90;;;;;;5076869;28;20242;-81
2023/09/03 06:21:18;;;;;;;5.73;4.47;;;16.30;99.90;;;;;;5074340;28;20268;-81
2023/09/03 06:23:43;;;;;;;5.77;4.37;;;16.30;99.90;;;;;;5074809;28;20201;-81
2023/09/03 06:26:09;;;;;;;5.73;4.43;;;16.30;99.90;;;;;;5076166;28;20209;-80
2023/09/03 06:28:36;;;;;;;6.63;4.90;;;16.40;99.90;;;;;;5075224;28;20161;-82
2023/09/03 06:31:02;;;;;;;7.97;5.10;;;16.50;99.90;;;;;;5075936;28;20195;-83
2023/09/03 06:33:27;;;;;;;7.63;6.00;;;16.50;99.90;;;;;;5075273;28;20165;-83
2023/09/03 06:35:53;;;;;;;7.77;5.00;;;16.50;99.90;;;;;;5076227;28;20223;-83
2023/09/03 06:38:18;;;;;;;9.03;5.70;;;16.40;99.90;;;;;;5076324;28;20165;-83
2023/09/03 06:40:44;;;;;;;8.97;6.30;;;16.40;99.90;;;;;;5075275;28;20586;-82
2023/09/03 06:43:10;;;;;;;7.57;6.07;;;16.40;99.90;;;;;;5076048;28;20196;-82
2023/09/03 06:45:36;;;;;;;9.70;6.10;;;16.40;99.90;;;;;;5077000;28;20212;-82
2023/09/03 06:48:01;;;;;;;8.27;5.90;;;16.40;99.90;;;;;;5076396;28;20219;-82
2023/09/03 06:50:27;;;;;;;9.87;6.53;;;16.40;99.90;;;;;;5076896;28;20575;-82
2023/09/03 06:52:53;;;;;;;8.77;6.30;;;16.50;99.90;;;;;;5075838;28;20177;-82
2023/09/03 06:55:18;;;;;;;9.27;6.47;;;16.50;99.90;;;;;;5076532;28;20169;-81
2023/09/03 06:57:44;;;;;;;9.17;6.53;;;16.50;99.90;;;;;;5076754;28;20177;-82
2023/09/03 07:00:10;;;;;;;8.90;6.20;;;16.60;99.90;;;;;;5076413;28;20202;-82
2023/09/03 07:02:36;;;;;;;8.40;6.40;;;16.60;99.90;;;;;;5056343;28;20185;-81
2023/09/03 07:05:02;;;;;;;10.87;7.50;;;16.70;99.90;;;;;;5057447;28;20324;-82
2023/09/03 07:07:27;;;;;;;11.67;7.97;;;16.70;99.90;;;;;;5055531;28;20190;-81
2023/09/03 07:09:54;;;;;;;12.70;8.07;;;16.80;99.90;;;;;;5057007;28;20237;-81
2023/09/03 07:12:20;;;;;;;13.30;9.03;;;16.80;99.90;;;;;;5058901;28;20222;-82
2023/09/03 07:14:46;;;;;;;12.53;9.33;;;16.90;99.90;;;;;;5075874;28;20181;-82
2023/09/03 07:17:11;;;;;;;13.93;9.90;;;16.90;99.90;;;;;;5075469;28;20205;-82
2023/09/03 07:19:37;;;;;;;14.27;9.97;;;16.90;99.90;;;;;;5074176;28;20177;-81
2023/09/03 07:22:03;;;;;;;12.90;9.70;;;17.00;99.90;;;;;;5074894;28;20600;-82
2023/09/03 07:24:29;;;;;;;14.33;11.97;;;17.00;99.90;;;;;;5075396;28;20176;-84
2023/09/03 07:26:55;;;;;;;17.40;12.33;;;17.00;99.90;;;;;;5075025;28;20214;-83
2023/09/03 07:29:20;;;;;;;19.03;13.27;;;17.00;99.90;;;;;;5074117;28;20214;-83
2023/09/03 07:31:46;;;;;;;17.90;12.77;;;17.10;99.90;;;;;;5073866;28;20181;-81
2023/09/03 07:34:12;;;;;;;18.87;13.57;;;17.10;99.90;;;;;;5075192;28;20169;-83
2023/09/03 07:36:38;;;;;;;17.77;12.90;;;17.10;99.90;;;;;;5074162;28;20239;-81
2023/09/03 07:39:05;;;;;;;18.05;14.23;;;17.10;99.90;;;;;;5067977;28;20442;-80
2023/09/03 07:41:31;;;;;;;15.70;12.87;;;17.20;99.90;;;;;;5054752;28;20170;-82
2023/09/03 07:43:57;;;;;;;17.17;13.57;;;17.20;99.90;;;;;;5055305;28;20174;-81
2023/09/03 07:46:23;;;;;;;16.03;12.77;;;17.20;99.90;;;;;;5053083;28;20239;-80
2023/09/03 07:48:55;;;;;;;15.07;12.10;;;17.30;99.90;;;;;;5054672;28;20519;-81
2023/09/03 07:51:21;;;;;;;16.43;12.53;;;17.20;99.90;;;;;;5070654;28;20205;-81
2023/09/03 07:53:47;;;;;;;16.83;12.70;;;17.20;99.90;;;;;;5075053;28;20172;-83
2023/09/03 07:56:14;;;;;;;16.13;12.80;;;17.20;99.90;;;;;;5074390;28;20196;-82
2023/09/03 07:58:39;;;;;;;14.43;12.60;;;17.20;99.90;;;;;;5073905;28;20177;-82
2023/09/03 08:01:05;;;;;;;16.60;12.83;;;17.30;99.90;;;;;;5073443;28;20678;-81
2023/09/03 08:03:34;;;;;;;15.90;12.63;;;17.30;99.90;;;;;;5073699;28;20264;-82
2023/09/03 08:06:01;;;;;;;17.23;11.80;;;17.40;99.90;;;;;;5075227;28;20209;-87
2023/09/03 08:08:28;;;;;;;16.00;12.17;;;17.50;99.90;;;;;;5074214;28;20523;-85
2023/09/03 08:10:54;;;;;;;15.07;11.80;;;17.40;99.90;;;;;;5072126;28;20166;-81
2023/09/03 08:13:19;;;;;;;14.67;11.70;;;17.50;99.90;;;;;;5074322;28;20165;-80
2023/09/03 08:15:45;;;;;;;14.67;12.17;;;17.50;99.90;;;;;;5073295;28;20193;-82
2023/09/03 08:18:11;;;;;;;15.37;12.00;;;17.60;99.90;;;;;;5075508;28;20300;-81
2023/09/03 08:20:37;;;;;;;14.60;11.93;;;17.50;99.90;;;;;;5062912;28;20606;-81
2023/09/03 08:23:03;;;;;;;15.07;11.80;;;17.50;99.90;;;;;;5054195;28;20176;-86
2023/09/03 08:25:30;;;;;;;13.30;11.30;;;17.60;99.90;;;;;;5055173;28;20202;-85
2023/09/03 08:27:55;;;;;;;14.00;11.97;;;17.50;99.90;;;;;;5060843;28;20215;-84
2023/09/03 08:30:23;;;;;;;13.50;11.53;;;17.50;99.90;;;;;;5073731;28;20196;-85
2023/09/03 08:32:48;;;;;;;14.80;11.83;;;17.50;99.90;;;;;;5073092;28;20187;-82
2023/09/03 08:35:17;;;;;;;15.20;11.67;;;17.50;99.90;;;;;;5072706;28;20180;-84
2023/09/03 08:37:42;;;;;;;23.73;9.50;;;17.50;99.90;;;;;;5069626;28;20189;-83
2023/09/03 08:40:09;;;;;;;13.80;11.40;;;17.60;99.90;;;;;;5069160;28;20188;-83
2023/09/03 08:42:47;;;;;;;15.00;11.47;;;17.70;99.90;;;;;;5061493;28;20173;-80
2023/09/03 08:45:19;;;;;;;19.60;8.83;;;17.80;99.90;;;;;;5063898;28;20262;-78
2023/09/03 08:47:45;;;;;;;14.73;10.03;;;17.80;99.90;;;;;;5064594;28;20182;-80
2023/09/03 08:50:12;;;;;;;12.77;11.00;;;18.00;99.90;;;;;;5064817;28;20647;-78
2023/09/03 08:52:39;;;;;;;13.60;11.00;;;18.10;99.90;;;;;;5069742;28;20262;-78
2023/09/03 08:55:06;;;;;;;14.43;11.50;;;18.20;99.90;;;;;;5070960;28;20188;-79
2023/09/03 08:57:34;;;;;;;13.57;10.77;;;18.30;99.90;;;;;;5071320;28;20196;-78
2023/09/03 09:00:00;;;;;;;12.25;10.65;;;18.50;99.90;;;;;;5071192;28;20184;-78
2023/09/03 09:02:27;;;;;;;12.00;10.68;;;18.60;99.90;;;;;;5061208;28;20192;-79
2023/09/03 09:04:53;;;;;;;11.93;10.20;;;18.70;99.90;;;;;;5057203;28;20223;-79
2023/09/03 09:07:19;;;;;;;11.25;9.55;;;18.60;99.90;;;;;;5061347;28;20196;-79
2023/09/03 09:09:47;;;;;;;10.45;9.43;;;18.70;99.90;;;;;;5059725;28;20235;-79
2023/09/03 09:12:27;;;;;;;12.15;9.10;;;18.90;99.90;;;;;;5069595;28;20180;-78
2023/09/03 09:15:01;;;;;;;9.70;8.30;;;18.90;99.90;;;;;;5061664;28;20227;-79
2023/09/03 09:17:29;;;;;;;9.93;8.40;;;19.00;99.90;;;;;;5060814;28;20197;-79
2023/09/03 09:20:00;;;;;;;9.70;8.07;;;19.10;99.90;;;;;;5070639;28;20189;-77
2023/09/03 09:22:26;;;;;;;9.82;8.27;;;19.20;92.40;;;;;;5055407;28;20178;-79
2023/09/03 09:24:52;;;;;;;10.60;8.98;;;19.30;53.80;;;;;;5066435;28;20193;-77
2023/09/03 09:27:19;;;;;;;10.15;9.15;;;19.40;37.20;;;;;;5072356;28;20192;-79
2023/09/03 09:29:45;;;;;;;10.27;8.57;;;19.30;35.90;;;;;;5071783;28;20181;-79
2023/09/03 09:32:22;;;;;;;9.15;8.25;;;19.20;72.20;;;;;;5072401;28;20169;-79
2023/09/03 09:34:48;;;;;;;9.20;8.30;;;19.40;97.50;;;;;;5072959;28;20180;-78
2023/09/03 09:37:15;;;;;;;8.93;8.02;;;19.50;58.20;;;;;;5072712;28;20232;-79
2023/09/03 09:39:48;;;;;;;8.63;7.57;;;19.80;99.90;;;;;;5057771;28;20184;-79
2023/09/03 09:42:21;;;;;;;8.93;7.60;;;19.90;1.00;;;;;;5051112;28;20170;-78
2023/09/03 09:44:52;;;;;;;9.80;7.90;;;20.10;1.00;;;;;;5055843;28;20675;-77
2023/09/03 09:47:19;;;;;;;8.32;7.47;;;20.50;1.00;;;;;;5054945;28;20186;-78
2023/09/03 09:49:48;;;;;;;10.15;8.25;;;20.70;99.90;;;;;;5069241;28;20169;-77
2023/09/03 09:52:18;;;;;;;8.20;7.35;;;20.70;99.90;;;;;;5074313;28;20319;-78
2023/09/03 09:54:45;;;;;;;8.45;7.53;;;20.80;1.00;;;;;;5057021;28;20235;-78
2023/09/03 09:57:21;;;;;;;8.02;7.13;;;20.90;1.00;;;;;;5055971;28;20710;-76
2023/09/03 09:59:52;;;;;;;7.15;6.47;;;20.90;1.00;;;;;;5090733;22;20249;-80
2023/09/03 10:02:19;;;;;;;7.15;6.40;;;21.00;99.90;;;;;;5064108;28;20185;-78
2023/09/03 10:04:46;;;;;;;8.75;6.55;;;21.20;99.90;;;;;;5059573;28;20193;-78
2023/09/03 10:07:12;;;;;;;5.97;5.38;;;21.60;16.40;;;;;;5067313;28;20173;-77
2023/09/03 10:09:39;;;;;;;6.00;5.40;;;22.00;1.00;;;;;;5075906;28;20193;-78
2023/09/03 10:12:06;;;;;;;5.93;5.28;;;22.40;1.00;;;;;;5076392;28;20177;-78
2023/09/03 10:14:32;;;;;;;7.47;6.38;;;22.70;99.90;;;;;;5075403;28;20529;-79
2023/09/03 10:17:06;;;;;;;6.47;4.80;;;22.70;1.00;;;;;;5074992;28;20177;-80
2023/09/03 10:19:47;;;;;;;5.63;5.13;;;22.80;99.90;;;;;;5074938;28;20201;-80
2023/09/03 10:22:16;;;;;;;5.93;5.07;;;22.90;1.00;;;;;;5075761;28;20193;-80
2023/09/03 10:24:46;;;;;;;6.95;5.20;;;23.00;99.90;;;;;;5075990;28;20169;-79
2023/09/03 10:27:17;;;;;;;10.40;5.10;;;23.10;99.90;;;;;;5075023;28;20165;-78
2023/09/03 10:29:44;;;;;;;6.85;6.15;;;23.10;1.00;;;;;;5074269;28;20733;-80
2023/09/03 10:32:12;;;;;;;7.07;5.57;;;22.90;5.80;;;;;;5075020;28;20607;-80
2023/09/03 10:34:37;;;;;;;5.75;5.25;;;22.60;15.30;;;;;;5075878;28;20197;-80
2023/09/03 10:37:04;;;;;;;6.03;5.43;;;22.50;99.90;;;;;;5077151;28;20165;-77
2023/09/03 10:39:30;;;;;;;5.30;4.85;;;22.70;99.90;;;;;;5076300;28;20181;-78
2023/09/03 10:42:15;;;;;;;6.15;5.28;;;22.90;99.90;;;;;;5075910;28;20214;-77
2023/09/03 10:44:50;;;;;;;5.65;5.07;;;23.00;1.00;;;;;;5075516;28;20165;-78
2023/09/03 10:47:18;;;;;;;3.55;3.25;;;23.00;1.00;;;;;;5075494;28;20164;-80
2023/09/03 10:49:45;;;;;;;4.63;4.22;;;23.00;1.00;;;;;;5069002;28;20415;-81
2023/09/03 10:52:30;;;;;;;4.22;3.45;;;22.90;99.90;;;;;;5054696;28;20174;-81
2023/09/03 10:55:19;;;;;;;6.28;3.58;;;23.00;1.00;;;;;;5070679;28;20177;-80
2023/09/03 10:58:08;;;;;;;4.20;3.80;;;23.10;67.90;;;;;;5065244;28;20185;-79
2023/09/03 11:00:34;;;;;;;4.43;4.03;;;23.10;1.00;;;;;;5063069;28;20220;-80
2023/09/03 11:03:17;;;;;;;4.95;3.72;;;23.10;1.00;;;;;;5055039;28;20204;-81
2023/09/03 11:06:19;;;;;;;4.05;2.75;;;22.90;1.00;;;;;;5057003;28;20193;-81
2023/09/03 11:08:46;;;;;;;3.40;3.08;;;22.60;99.90;;;;;;5067875;28;20184;-81
2023/09/03 11:11:19;;;;;;;3.40;3.10;;;22.30;1.00;;;;;;5067889;28;20441;-81
2023/09/03 11:13:49;;;;;;;3.50;3.20;;;22.40;1.00;;;;;;5075638;28;20177;-79
2023/09/03 11:16:15;;;;;;;3.50;2.78;;;22.50;1.00;;;;;;5075819;28;20200;-80
2023/09/03 11:18:49;;;;;;;3.40;3.10;;;22.80;99.90;;;;;;5074862;28;20180;-80
2023/09/03 11:21:15;;;;;;;3.20;2.90;;;22.80;1.00;;;;;;5066313;28;20199;-81
2023/09/03 11:23:59;;;;;;;3.03;2.80;;;23.10;56.10;;;;;;5074151;28;20184;-81
2023/09/03 11:26:24;;;;;;;2.90;2.70;;;23.40;1.00;;;;;;5074270;28;20214;-85
2023/09/03 11:28:50;;;;;;;2.83;2.50;;;23.50;99.90;;;;;;5074644;28;20169;-81
2023/09/03 11:31:16;;;;;;;2.95;2.63;;;23.70;1.00;;;;;;5073668;28;20188;-81
2023/09/03 11:33:41;;;;;;;2.85;2.47;;;24.00;1.00;;;;;;5073910;28;20176;-82
2023/09/03 11:36:07;;;;;;;2.60;2.40;;;24.20;5.90;;;;;;5073832;28;20195;-81
2023/09/03 11:38:34;;;;;;;3.17;2.70;;;24.50;99.90;;;;;;5073526;28;20222;-80
2023/09/03 11:41:00;;;;;;;2.88;2.53;;;24.50;99.90;;;;;;5074042;28;20196;-81
2023/09/03 11:43:29;;;;;;;2.70;2.30;;;24.20;99.90;;;;;;5073536;28;20177;-81
2023/09/03 11:45:55;;;;;;;3.28;2.67;;;23.90;99.90;;;;;;5074800;28;20254;-81
2023/09/03 11:48:28;;;;;;;2.60;2.40;;;24.10;99.90;;;;;;5073316;28;20585;-81
2023/09/03 11:50:54;;;;;;;2.90;2.60;;;24.20;99.90;;;;;;5072538;28;20185;-83
2023/09/03 11:53:23;;;;;;;2.90;2.70;;;24.20;99.90;;;;;;5074268;28;20165;-82
2023/09/03 11:55:56;;;;;;;2.97;2.78;;;24.30;99.90;;;;;;5074398;28;20188;-81
2023/09/03 11:58:26;;;;;;;3.10;2.90;;;24.20;1.00;;;;;;5074670;28;20207;-81
2023/09/03 12:00:52;;;;;;;3.80;3.13;;;24.10;1.00;;;;;;5072799;28;20212;-81
2023/09/03 12:03:18;;;;;;;2.78;2.53;;;24.10;1.00;;;;;;5073213;28;20196;-83
2023/09/03 12:05:44;;;;;;;3.30;2.63;;;24.30;1.00;;;;;;5073686;28;20192;-85
2023/09/03 12:08:10;;;;;;;2.70;2.33;;;24.50;99.90;;;;;;5074265;28;20174;-81
2023/09/03 12:10:35;;;;;;;2.95;2.60;;;24.50;11.90;;;;;;5073687;28;20195;-81
2023/09/03 12:13:02;;;;;;;2.70;2.50;;;24.40;1.00;;;;;;5072993;28;20218;-81
2023/09/03 12:15:30;;;;;;;2.90;2.70;;;24.50;1.00;;;;;;5074589;28;20199;-81
2023/09/03 12:18:10;;;;;;;3.15;2.85;;;24.70;1.00;;;;;;5073381;28;20177;-81
2023/09/03 12:20:39;;;;;;;2.75;2.55;;;24.70;1.00;;;;;;5071955;28;20204;-81
2023/09/03 12:23:10;;;;;;;3.58;2.60;;;24.70;1.00;;;;;;5074342;28;20557;-83
2023/09/03 12:25:36;;;;;;;3.63;2.95;;;24.90;1.00;;;;;;5073977;28;20192;-81
2023/09/03 12:28:04;;;;;;;2.90;2.60;;;25.10;67.10;;;;;;5072609;28;20177;-81
2023/09/03 12:30:56;;;;;;;3.10;2.80;;;25.20;1.00;;;;;;5071276;28;20200;-81
2023/09/03 12:33:26;;;;;;;3.28;2.75;;;25.10;1.00;;;;;;5073224;28;20173;-81
2023/09/03 12:36:14;;;;;;;2.90;2.70;;;25.00;99.90;;;;;;5072627;28;20188;-81
2023/09/03 12:38:51;;;;;;;2.63;2.42;;;24.80;1.00;;;;;;5074015;28;20172;-81
2023/09/03 12:41:17;;;;;;;2.53;2.33;;;24.90;93.90;;;;;;5073177;28;20223;-81
2023/09/03 12:43:43;;;;;;;2.75;2.55;;;25.00;99.90;;;;;;5072620;28;20173;-81
2023/09/03 12:46:12;;;;;;;2.97;2.70;;;25.10;1.00;;;;;;5073808;28;20197;-81
2023/09/03 12:48:37;;;;;;;2.90;2.70;;;24.90;1.00;;;;;;5072414;28;20172;-81